Time;durP1;ratioP1;P1;durP2;ratioP2;P2;SDS_P1;SDS_P2;PMS_P1;PMS_P2;Temp;Humidity;BMP_temperature;BMP_pressure;BME280_temperature;BME280_humidity;BME280_pressure;Samples;Min_cycle;Max_cycle;Signal;HPM_P1;HPM_P2
2022/11/03 00:01:52;;;;;;;5.30;2.10;;;14.30;62.00;;;;;;5037991;28;20068;-48
2022/11/03 00:04:20;;;;;;;6.40;2.60;;;14.30;62.00;;;;;;5040139;28;20045;-53
2022/11/03 00:06:52;;;;;;;6.32;2.13;;;14.30;62.00;;;;;;5044542;28;20409;-49
2022/11/03 00:09:22;;;;;;;5.70;2.20;;;14.30;62.10;;;;;;5038978;28;20543;-49
2022/11/03 00:11:52;;;;;;;4.15;2.15;;;14.20;62.00;;;;;;5028011;28;20041;-48
2022/11/03 00:14:19;;;;;;;6.68;2.00;;;14.30;62.50;;;;;;5039544;28;20517;-48
2022/11/03 00:16:46;;;;;;;6.43;2.40;;;14.20;61.90;;;;;;5037906;28;20537;-51
2022/11/03 00:19:15;;;;;;;6.13;2.72;;;14.20;62.00;;;;;;5035567;28;20103;-50
2022/11/03 00:21:43;;;;;;;9.45;2.67;;;14.20;62.80;;;;;;5043891;28;20038;-48
2022/11/03 00:24:10;;;;;;;7.68;2.45;;;14.10;62.20;;;;;;5012986;28;20124;-50
2022/11/03 00:26:39;;;;;;;8.68;2.88;;;14.10;62.20;;;;;;5014183;28;20045;-50
2022/11/03 00:29:15;;;;;;;5.13;2.05;;;14.10;62.30;;;;;;5030578;28;20095;-50
2022/11/03 00:31:43;;;;;;;7.13;2.55;;;14.10;62.60;;;;;;5041239;28;20568;-48
2022/11/03 00:34:10;;;;;;;5.35;2.25;;;14.10;62.40;;;;;;5044858;28;20041;-48
2022/11/03 00:36:42;;;;;;;5.93;2.40;;;14.00;62.40;;;;;;5034421;28;20127;-49
2022/11/03 00:39:12;;;;;;;5.95;2.72;;;14.00;62.50;;;;;;5041960;28;20061;-48
2022/11/03 00:41:42;;;;;;;7.18;2.05;;;14.00;62.50;;;;;;5053387;28;20052;-48
2022/11/03 00:44:09;;;;;;;8.88;1.98;;;14.00;62.50;;;;;;5040906;28;20052;-48
2022/11/03 00:46:39;;;;;;;6.15;2.55;;;14.00;62.60;;;;;;5040259;28;20416;-48
2022/11/03 00:49:05;;;;;;;7.05;2.40;;;13.90;62.60;;;;;;5035300;28;20040;-51
2022/11/03 00:51:33;;;;;;;5.10;1.83;;;13.90;62.70;;;;;;5045353;28;20087;-48
2022/11/03 00:54:04;;;;;;;7.32;2.70;;;13.90;62.70;;;;;;5048990;28;20405;-49
2022/11/03 00:56:36;;;;;;;10.52;2.38;;;13.90;62.90;;;;;;5043381;28;20044;-48
2022/11/03 00:59:05;;;;;;;10.65;2.20;;;13.90;63.10;;;;;;5044056;28;20065;-48
2022/11/03 01:01:39;;;;;;;3.78;1.98;;;13.80;62.80;;;;;;5037959;28;20094;-49
2022/11/03 01:07:04;;;;;;;5.75;2.08;;;13.80;63.00;;;;;;5030937;28;20055;-51
2022/11/03 01:09:39;;;;;;;7.00;2.75;;;13.80;63.00;;;;;;5027525;28;20048;-48
2022/11/03 01:12:17;;;;;;;6.45;1.85;;;13.80;63.20;;;;;;5044616;28;20627;-49
2022/11/03 01:14:51;;;;;;;7.25;2.33;;;13.70;63.40;;;;;;5051284;28;20128;-48
2022/11/03 01:17:24;;;;;;;6.93;2.42;;;13.70;63.10;;;;;;5038094;28;20059;-49
2022/11/03 01:19:53;;;;;;;;;;;13.70;63.20;;;;;;5042018;28;20053;-49
2022/11/03 01:22:22;;;;;;;4.45;1.77;;;13.80;63.30;;;;;;5046853;28;19921;-48
2022/11/03 01:24:50;;;;;;;4.38;1.80;;;13.70;62.90;;;;;;5028675;28;20052;-48
2022/11/03 01:31:05;;;;;;;5.55;2.38;;;13.80;63.70;;;;;;5044670;28;20068;-50
2022/11/03 01:33:37;;;;;;;4.68;2.00;;;13.80;63.20;;;;;;5052093;28;20056;-49
2022/11/03 01:36:07;;;;;;;5.22;1.85;;;13.80;63.10;;;;;;5034093;28;20030;-48
2022/11/03 01:38:39;;;;;;;7.35;1.92;;;13.70;63.10;;;;;;5040737;28;20037;-48
2022/11/03 01:41:13;;;;;;;5.47;2.45;;;13.80;63.10;;;;;;5049146;28;20045;-49
2022/11/03 01:43:41;;;;;;;6.22;1.88;;;13.80;63.30;;;;;;5040479;28;20045;-48
2022/11/03 01:46:22;;;;;;;8.05;2.38;;;13.80;63.20;;;;;;5044123;28;20041;-50
2022/11/03 01:49:00;;;;;;;3.90;1.98;;;13.80;63.30;;;;;;5046533;28;20049;-50
2022/11/03 01:51:28;;;;;;;4.80;1.90;;;13.80;63.50;;;;;;5051569;28;20041;-47
2022/11/03 01:54:00;;;;;;;3.92;2.00;;;13.80;64.00;;;;;;5036605;28;20047;-48
2022/11/03 01:56:31;;;;;;;9.48;2.55;;;13.80;63.40;;;;;;5043188;28;20178;-49
2022/11/03 01:58:57;;;;;;;5.75;1.60;;;13.80;63.50;;;;;;5051244;28;20048;-48
2022/11/03 02:01:24;;;;;;;2.72;1.77;;;13.80;63.40;;;;;;5035545;28;20046;-49
2022/11/03 02:04:01;;;;;;;6.20;2.13;;;13.80;63.40;;;;;;5023614;28;20041;-48
2022/11/03 02:06:28;;;;;;;4.15;1.60;;;13.80;63.60;;;;;;5040558;28;20045;-48
2022/11/03 02:09:02;;;;;;;3.63;2.22;;;13.80;63.40;;;;;;5042645;28;20056;-50
2022/11/03 02:14:16;;;;;;;11.60;2.00;;;13.80;63.50;;;;;;5030620;28;20490;-48
2022/11/03 02:16:49;;;;;;;5.57;1.80;;;13.80;63.40;;;;;;5031800;28;20045;-47
2022/11/03 02:19:44;;;;;;;5.45;1.50;;;13.80;63.60;;;;;;5030446;28;20420;-48
2022/11/03 02:22:36;;;;;;;5.15;1.67;;;13.80;63.80;;;;;;5038374;28;20125;-49
2022/11/03 02:25:28;;;;;;;6.78;1.80;;;13.80;63.60;;;;;;5034204;28;20051;-48
2022/11/03 02:27:57;;;;;;;5.10;1.88;;;13.80;63.70;;;;;;5027324;28;20050;-52
2022/11/03 02:30:29;;;;;;;3.13;1.27;;;13.80;63.30;;;;;;5035329;28;20512;-47
2022/11/03 02:33:25;;;;;;;6.15;1.92;;;13.80;63.50;;;;;;5042779;28;20528;-49
2022/11/03 02:36:09;;;;;;;7.43;1.42;;;13.80;63.80;;;;;;5024021;28;20054;-47
2022/11/03 02:38:41;;;;;;;4.43;1.75;;;13.80;63.50;;;;;;5037092;28;20053;-48
2022/11/03 02:41:09;;;;;;;5.97;1.83;;;13.80;63.40;;;;;;5047762;28;20068;-47
2022/11/03 02:43:37;;;;;;;4.80;1.58;;;13.80;63.50;;;;;;5033518;28;20037;-49
2022/11/03 02:46:07;;;;;;;7.57;2.40;;;13.80;63.60;;;;;;5039616;28;20069;-48
2022/11/03 02:48:34;;;;;;;8.68;2.55;;;13.80;63.60;;;;;;5050440;28;20052;-48
2022/11/03 02:51:04;;;;;;;8.98;2.35;;;13.80;63.70;;;;;;5050486;28;20040;-49
2022/11/03 02:53:35;;;;;;;5.90;2.75;;;13.80;63.80;;;;;;5025349;28;20044;-50
2022/11/03 02:56:09;;;;;;;8.05;1.98;;;13.80;63.80;;;;;;5042321;28;20064;-48
2022/11/03 02:58:48;;;;;;;4.88;2.00;;;13.80;63.90;;;;;;5034796;28;20041;-48
2022/11/03 03:01:45;;;;;;;5.07;2.03;;;13.80;64.00;;;;;;5050521;28;20456;-51
2022/11/03 03:04:31;;;;;;;6.00;1.83;;;13.80;64.10;;;;;;5036167;28;20061;-48
2022/11/03 03:07:04;;;;;;;9.57;2.15;;;13.80;63.80;;;;;;5042711;28;20043;-47
2022/11/03 03:09:45;;;;;;;4.82;1.90;;;13.80;63.70;;;;;;5049400;28;20059;-50
2022/11/03 03:12:14;;;;;;;3.42;1.73;;;13.80;64.00;;;;;;5036526;28;20049;-49
2022/11/03 03:14:45;;;;;;;7.07;2.22;;;13.80;63.70;;;;;;5035579;28;20123;-50
2022/11/03 03:17:26;;;;;;;2.80;2.03;;;13.80;63.80;;;;;;5040906;28;20634;-49
2022/11/03 03:20:00;;;;;;;4.30;1.95;;;13.80;64.00;;;;;;5026252;28;20534;-48
2022/11/03 03:22:30;;;;;;;4.53;2.10;;;13.80;63.80;;;;;;5035671;28;20136;-49
2022/11/03 03:25:14;;;;;;;10.73;1.85;;;13.70;63.70;;;;;;5041940;28;20084;-50
2022/11/03 03:27:46;;;;;;;5.75;1.77;;;13.80;64.00;;;;;;5049311;28;20395;-49
2022/11/03 03:30:17;;;;;;;6.60;1.80;;;13.80;63.90;;;;;;5033479;28;20049;-47
2022/11/03 03:32:48;;;;;;;7.95;2.05;;;13.70;63.90;;;;;;5031258;28;20044;-48
2022/11/03 03:35:23;;;;;;;5.73;1.93;;;13.70;63.90;;;;;;5039144;28;20049;-50
2022/11/03 03:37:58;;;;;;;7.07;2.40;;;13.80;64.20;;;;;;5049910;28;20283;-49
2022/11/03 03:40:32;;;;;;;7.13;2.08;;;13.80;64.10;;;;;;5034267;28;20037;-48
2022/11/03 03:43:00;;;;;;;;;;;13.80;64.20;;;;;;5038510;28;20046;-48
2022/11/03 03:45:30;;;;;;;3.42;1.60;;;13.90;64.20;;;;;;5049225;28;19925;-52
2022/11/03 03:47:58;;;;;;;3.90;1.63;;;13.90;64.00;;;;;;5040240;28;20046;-47
2022/11/03 03:50:27;;;;;;;10.30;2.25;;;13.90;64.00;;;;;;5028550;28;20041;-49
2022/11/03 03:52:59;;;;;;;5.07;1.70;;;13.90;64.70;;;;;;5037169;28;20209;-49
2022/11/03 03:55:34;;;;;;;6.47;2.10;;;13.90;64.10;;;;;;5041129;28;20065;-48
2022/11/03 03:58:03;;;;;;;4.53;2.08;;;13.90;64.10;;;;;;5049544;28;20501;-48
2022/11/03 04:00:30;;;;;;;5.43;1.70;;;13.90;64.10;;;;;;5035731;28;20098;-47
2022/11/03 04:02:57;;;;;;;2.85;1.60;;;13.90;64.00;;;;;;5039615;28;20064;-48
2022/11/03 04:05:25;;;;;;;10.00;2.38;;;13.90;64.00;;;;;;5040977;28;20047;-49
2022/11/03 04:07:52;;;;;;;5.68;2.00;;;13.90;64.00;;;;;;5048402;28;20072;-48
2022/11/03 04:10:21;;;;;;;3.92;2.00;;;13.90;64.00;;;;;;5036393;28;20490;-47
2022/11/03 04:24:00;;;;;;;8.48;2.38;;;14.00;64.30;;;;;;5030423;28;20634;-48
2022/11/03 04:26:28;;;;;;;3.03;1.63;;;13.90;64.10;;;;;;5027352;28;20405;-49
2022/11/03 04:28:56;;;;;;;7.80;2.78;;;13.90;64.30;;;;;;5027685;28;20389;-48
2022/11/03 04:31:22;;;;;;;7.60;2.85;;;13.90;64.30;;;;;;5036931;28;20044;-50
2022/11/03 04:33:50;;;;;;;3.85;2.17;;;13.90;64.40;;;;;;5028698;28;20076;-50
2022/11/03 04:36:25;;;;;;;6.28;2.22;;;13.90;64.60;;;;;;5027117;28;20052;-48
2022/11/03 04:38:51;;;;;;;9.02;2.58;;;13.90;64.60;;;;;;5031059;28;20042;-50
2022/11/03 04:41:24;;;;;;;3.30;2.10;;;13.90;64.70;;;;;;5047530;28;20052;-48
2022/11/03 04:43:51;;;;;;;4.28;2.50;;;13.90;65.00;;;;;;5042029;28;20045;-49
2022/11/03 04:46:26;;;;;;;4.60;2.38;;;13.90;64.90;;;;;;5028866;28;20045;-49
2022/11/03 04:49:00;;;;;;;8.65;2.60;;;13.90;65.40;;;;;;5034210;28;20056;-50
2022/11/03 04:51:30;;;;;;;5.28;1.83;;;13.90;65.20;;;;;;5042302;28;20037;-48
2022/11/03 04:54:15;;;;;;;5.63;2.05;;;13.90;65.30;;;;;;5048544;28;20068;-48
2022/11/03 04:56:41;;;;;;;7.70;3.20;;;13.90;65.90;;;;;;5033377;28;20072;-49
2022/11/03 04:59:13;;;;;;;6.35;2.45;;;13.90;66.00;;;;;;5037251;28;20041;-49
2022/11/03 05:01:42;;;;;;;4.80;2.30;;;13.90;65.70;;;;;;5050959;28;20045;-49
2022/11/03 05:04:17;;;;;;;4.28;2.00;;;13.90;65.60;;;;;;5038663;28;20073;-49
2022/11/03 05:06:50;;;;;;;6.18;2.13;;;13.90;66.00;;;;;;5029426;28;20048;-48
2022/11/03 05:09:25;;;;;;;6.35;2.45;;;14.00;65.90;;;;;;5049652;28;20060;-49
2022/11/03 05:11:53;;;;;;;5.43;2.08;;;14.00;66.00;;;;;;5053178;28;20049;-50
2022/11/03 05:14:26;;;;;;;5.75;2.63;;;14.00;65.80;;;;;;5028323;28;20065;-49
2022/11/03 05:16:58;;;;;;;7.00;2.33;;;14.00;65.90;;;;;;5039622;28;20098;-48
2022/11/03 05:19:39;;;;;;;5.28;2.05;;;14.00;66.00;;;;;;5038080;28;20041;-49
2022/11/03 05:22:18;;;;;;;7.55;2.25;;;14.00;66.50;;;;;;5030027;28;20055;-48
2022/11/03 05:24:45;;;;;;;5.85;2.10;;;14.00;66.30;;;;;;5031097;28;20417;-49
2022/11/03 05:27:18;;;;;;;5.70;2.25;;;14.00;65.90;;;;;;5033884;28;20490;-50
2022/11/03 05:29:44;;;;;;;6.32;2.35;;;14.10;66.20;;;;;;5030091;28;20056;-49
2022/11/03 05:32:18;;;;;;;4.25;2.28;;;14.10;66.10;;;;;;5029455;28;20073;-51
2022/11/03 05:34:47;;;;;;;7.57;2.22;;;14.10;66.30;;;;;;5031598;28;20046;-49
2022/11/03 05:37:34;;;;;;;8.70;2.40;;;14.10;66.20;;;;;;5036484;28;20037;-50
2022/11/03 05:40:22;;;;;;;6.10;2.20;;;14.10;66.70;;;;;;5030121;28;20037;-48
2022/11/03 05:42:59;;;;;;;6.82;2.47;;;14.10;66.80;;;;;;5030999;28;20041;-52
2022/11/03 05:45:33;;;;;;;5.05;2.15;;;14.10;66.60;;;;;;5035569;28;20144;-52
2022/11/03 05:48:02;;;;;;;5.40;2.15;;;14.20;66.50;;;;;;5047178;28;20512;-49
2022/11/03 05:50:32;;;;;;;4.75;1.80;;;14.10;66.30;;;;;;5044065;28;20037;-48
2022/11/03 05:53:15;;;;;;;7.70;2.17;;;14.10;66.40;;;;;;5036051;28;20045;-49
2022/11/03 05:55:42;;;;;;;8.32;2.53;;;14.10;66.50;;;;;;5031947;28;20045;-49
2022/11/03 05:58:21;;;;;;;7.03;2.38;;;14.20;66.40;;;;;;5051037;28;20048;-51
2022/11/03 06:00:48;;;;;;;6.22;2.15;;;14.20;66.70;;;;;;5032544;28;20187;-48
2022/11/03 06:03:20;;;;;;;7.28;2.70;;;14.20;66.50;;;;;;5035388;28;20434;-49
2022/11/03 06:05:47;;;;;;;7.15;1.75;;;14.20;66.60;;;;;;5033325;28;20560;-49
2022/11/03 06:08:19;;;;;;;4.85;2.22;;;14.20;66.60;;;;;;5030978;28;20137;-49
2022/11/03 06:10:49;;;;;;;4.45;1.88;;;14.20;66.80;;;;;;5029218;28;20770;-48
2022/11/03 06:13:35;;;;;;;6.20;1.98;;;14.20;66.70;;;;;;5039933;28;20056;-50
2022/11/03 06:16:09;;;;;;;7.00;2.40;;;14.20;67.20;;;;;;5043263;28;20589;-49
2022/11/03 06:18:37;;;;;;;7.03;2.78;;;14.20;66.70;;;;;;5030864;28;20587;-48
2022/11/03 06:21:12;;;;;;;5.22;2.67;;;14.20;66.70;;;;;;5023219;28;20035;-47
2022/11/03 06:23:42;;;;;;;8.23;2.70;;;14.20;67.60;;;;;;5023493;28;20045;-50
2022/11/03 06:26:22;;;;;;;8.40;3.35;;;14.20;66.70;;;;;;5036635;28;20051;-48
2022/11/03 06:28:49;;;;;;;5.15;3.05;;;14.20;66.80;;;;;;5040048;28;20077;-48
2022/11/03 06:31:22;;;;;;;4.72;3.20;;;14.20;66.60;;;;;;5039434;28;20052;-48
2022/11/03 06:33:51;;;;;;;11.15;4.05;;;14.20;66.80;;;;;;5031750;28;20041;-48
2022/11/03 06:36:21;;;;;;;6.75;3.20;;;14.20;66.80;;;;;;5034314;28;20060;-48
2022/11/03 06:39:22;;;;;;;7.30;2.75;;;14.20;66.80;;;;;;5030198;28;20044;-49
2022/11/03 06:41:49;;;;;;;7.00;2.50;;;14.20;67.30;;;;;;5041031;28;20097;-47
2022/11/03 06:44:25;;;;;;;7.03;2.90;;;14.10;66.70;;;;;;5030864;28;20047;-47
2022/11/03 06:46:55;;;;;;;5.40;2.40;;;14.10;67.10;;;;;;5027936;28;20059;-48
2022/11/03 06:49:28;;;;;;;5.97;2.78;;;14.10;67.00;;;;;;5026398;28;20049;-49
2022/11/03 06:51:57;;;;;;;8.82;2.47;;;14.10;67.10;;;;;;5038625;28;20044;-51
2022/11/03 06:54:24;;;;;;;6.57;3.08;;;14.10;67.00;;;;;;5029834;28;20046;-48
2022/11/03 06:56:50;;;;;;;7.65;2.42;;;14.10;66.90;;;;;;5027169;28;20033;-48
2022/11/03 06:59:18;;;;;;;12.38;3.05;;;14.10;66.90;;;;;;5033007;28;20045;-49
2022/11/03 07:01:49;;;;;;;8.02;3.03;;;14.10;67.00;;;;;;5040672;28;20399;-47
2022/11/03 07:04:21;;;;;;;7.25;2.33;;;14.10;67.00;;;;;;5034493;28;20048;-49
2022/11/03 07:06:48;;;;;;;7.57;2.30;;;14.10;67.20;;;;;;5027805;28;20046;-47
2022/11/03 07:09:22;;;;;;;6.40;2.95;;;14.10;67.00;;;;;;5039529;28;20435;-48
2022/11/03 07:11:50;;;;;;;7.45;2.83;;;14.10;67.10;;;;;;5029189;28;20055;-47
2022/11/03 07:14:20;;;;;;;6.57;2.20;;;14.10;67.00;;;;;;5025914;28;20080;-48
2022/11/03 07:16:57;;;;;;;5.00;2.10;;;14.10;67.20;;;;;;5033820;28;20047;-47
2022/11/03 07:19:28;;;;;;;4.75;2.00;;;14.10;67.50;;;;;;5026056;28;20044;-52
2022/11/03 07:22:13;;;;;;;6.63;2.50;;;14.10;67.20;;;;;;5028596;28;20048;-49
2022/11/03 07:24:43;;;;;;;4.93;1.90;;;14.10;67.60;;;;;;5028377;28;20045;-48
2022/11/03 07:27:26;;;;;;;4.20;2.10;;;14.10;67.20;;;;;;5026734;28;20055;-49
2022/11/03 07:30:15;;;;;;;;;;;14.20;67.40;;;;;;5027335;28;20087;-47
2022/11/03 07:32:42;;;;;;;6.35;2.00;;;14.20;67.40;;;;;;5019232;28;20628;-48
2022/11/03 07:35:33;;;;;;;5.30;2.25;;;14.20;66.70;;;;;;5025193;28;20033;-50
2022/11/03 07:38:22;;;;;;;8.02;3.00;;;14.20;67.50;;;;;;5026557;28;20038;-49
2022/11/03 07:40:51;;;;;;;7.22;2.45;;;14.20;67.10;;;;;;5031878;28;20033;-49
2022/11/03 07:43:23;;;;;;;5.13;1.90;;;14.20;67.10;;;;;;5029447;28;20041;-49
2022/11/03 07:45:58;;;;;;;6.32;2.90;;;14.20;67.30;;;;;;5025884;28;20417;-47
2022/11/03 07:48:33;;;;;;;5.25;2.58;;;14.20;67.30;;;;;;5031019;28;20117;-49
2022/11/03 07:51:13;;;;;;;6.30;2.08;;;14.30;67.40;;;;;;5031221;28;20068;-48
2022/11/03 07:53:43;;;;;;;5.68;2.10;;;14.30;67.40;;;;;;5018328;28;20041;-48
2022/11/03 07:56:25;;;;;;;7.10;2.40;;;14.30;67.90;;;;;;5037606;28;20036;-49
2022/11/03 07:59:12;;;;;;;4.45;2.42;;;14.40;67.50;;;;;;5041496;28;20046;-50
2022/11/03 08:01:47;;;;;;;7.47;2.35;;;14.40;67.40;;;;;;5020236;28;20069;-48
2022/11/03 08:04:20;;;;;;;2.70;1.70;;;14.40;67.30;;;;;;5026694;28;20046;-47
2022/11/03 08:06:47;;;;;;;5.95;2.03;;;14.40;67.30;;;;;;5040525;28;20521;-47
2022/11/03 08:09:14;;;;;;;5.05;2.25;;;14.50;67.10;;;;;;5031012;28;20175;-49
2022/11/03 08:11:41;;;;;;;5.78;2.30;;;14.50;67.20;;;;;;5025226;28;20060;-49
2022/11/03 08:14:09;;;;;;;3.97;2.38;;;14.50;67.20;;;;;;5036845;28;20052;-47
2022/11/03 08:16:36;;;;;;;4.68;2.30;;;14.50;67.10;;;;;;5031375;28;20041;-47
2022/11/03 08:19:02;;;;;;;9.60;2.90;;;14.50;67.10;;;;;;5040244;28;20179;-47
2022/11/03 08:21:29;;;;;;;6.30;2.50;;;14.60;67.10;;;;;;5025926;28;20051;-49
2022/11/03 08:23:56;;;;;;;7.57;3.30;;;14.60;67.10;;;;;;5034027;28;20119;-47
2022/11/03 08:26:22;;;;;;;5.25;2.15;;;14.70;67.10;;;;;;5032365;28;20045;-49
2022/11/03 08:28:49;;;;;;;7.38;2.63;;;14.70;67.00;;;;;;5027640;28;20472;-50
2022/11/03 08:31:16;;;;;;;8.60;2.55;;;14.70;67.00;;;;;;5024150;28;20410;-48
2022/11/03 08:33:42;;;;;;;5.93;3.53;;;14.70;67.00;;;;;;5036703;28;20041;-49
2022/11/03 08:36:09;;;;;;;7.30;2.63;;;14.80;67.00;;;;;;5031675;28;20044;-48
2022/11/03 08:38:36;;;;;;;5.88;2.97;;;14.80;66.90;;;;;;5028067;28;20041;-50
2022/11/03 08:41:03;;;;;;;4.07;2.15;;;14.80;66.80;;;;;;5041821;28;20119;-48
2022/11/03 08:43:30;;;;;;;10.88;2.20;;;14.90;66.80;;;;;;5029758;28;20053;-48
2022/11/03 08:45:57;;;;;;;4.05;2.58;;;14.90;66.70;;;;;;5032194;28;20076;-50
2022/11/03 08:48:38;;;;;;;4.45;1.88;;;14.90;66.60;;;;;;5034265;28;20037;-48
2022/11/03 08:51:07;;;;;;;4.53;2.33;;;14.90;66.60;;;;;;5032660;28;20494;-50
2022/11/03 08:53:34;;;;;;;4.72;2.55;;;15.00;66.60;;;;;;5040801;28;20059;-50
2022/11/03 08:56:00;;;;;;;7.95;2.78;;;15.00;66.50;;;;;;5047570;28;20043;-47
2022/11/03 08:58:27;;;;;;;4.53;1.77;;;15.00;66.50;;;;;;5045922;28;20068;-49
2022/11/03 09:00:57;;;;;;;6.32;2.10;;;15.10;66.50;;;;;;5041543;28;20148;-50
2022/11/03 09:03:24;;;;;;;8.45;2.17;;;15.10;66.60;;;;;;5044822;28;20051;-49
2022/11/03 09:05:50;;;;;;;5.40;2.28;;;15.20;66.60;;;;;;5042920;28;20049;-49
2022/11/03 09:08:17;;;;;;;5.15;2.08;;;15.30;66.70;;;;;;5032533;28;20061;-48
2022/11/03 09:11:04;;;;;;;4.72;2.22;;;15.30;66.50;;;;;;5043686;28;20734;-48
2022/11/03 09:13:30;;;;;;;6.18;2.33;;;15.40;66.40;;;;;;5043510;28;20120;-49
2022/11/03 09:15:57;;;;;;;6.93;2.83;;;15.50;66.40;;;;;;5042786;28;20048;-49
2022/11/03 09:18:24;;;;;;;4.32;2.08;;;15.60;66.70;;;;;;5041578;28;20116;-48
2022/11/03 09:20:50;;;;;;;5.28;2.50;;;15.60;66.30;;;;;;5043264;28;20047;-47
2022/11/03 09:23:17;;;;;;;4.30;2.25;;;15.70;66.10;;;;;;5039069;28;20430;-50
2022/11/03 09:25:43;;;;;;;6.13;2.40;;;15.70;66.00;;;;;;5028371;28;20049;-51
2022/11/03 09:28:10;;;;;;;4.72;2.50;;;15.80;65.90;;;;;;5037735;28;20125;-49
2022/11/03 09:30:37;;;;;;;5.63;2.40;;;15.90;65.70;;;;;;5038853;28;20045;-50
2022/11/03 09:33:03;;;;;;;5.63;2.92;;;16.00;65.50;;;;;;5032975;28;20108;-48
2022/11/03 09:35:30;;;;;;;2.88;2.05;;;16.00;65.30;;;;;;5042456;28;20041;-48
2022/11/03 09:37:59;;;;;;;5.32;2.70;;;16.00;65.10;;;;;;5052029;28;20045;-48
2022/11/03 09:40:25;;;;;;;5.45;2.47;;;16.10;64.90;;;;;;5028587;28;20065;-48
2022/11/03 09:42:52;;;;;;;8.05;2.40;;;16.20;64.70;;;;;;5031542;28;20037;-49
2022/11/03 09:45:19;;;;;;;4.43;2.00;;;16.20;64.60;;;;;;5037256;28;20464;-51
2022/11/03 09:47:46;;;;;;;7.35;2.22;;;16.20;64.40;;;;;;5029615;28;20055;-48
2022/11/03 09:50:16;;;;;;;4.93;2.15;;;16.30;64.20;;;;;;5042431;28;20121;-49
2022/11/03 09:52:42;;;;;;;5.32;1.92;;;16.30;63.90;;;;;;5051587;28;20047;-49
2022/11/03 09:55:22;;;;;;;8.18;2.60;;;16.40;63.90;;;;;;5034682;28;20038;-49
2022/11/03 09:57:51;;;;;;;5.95;1.90;;;16.40;63.60;;;;;;5044291;28;20060;-48
2022/11/03 10:00:20;;;;;;;3.75;1.83;;;16.50;63.50;;;;;;5033534;28;20044;-48
2022/11/03 10:02:47;;;;;;;3.85;1.60;;;16.50;63.30;;;;;;5027726;28;20053;-49
2022/11/03 10:05:24;;;;;;;2.30;1.60;;;16.50;63.10;;;;;;5025603;28;20038;-50
2022/11/03 10:07:57;;;;;;;5.75;1.60;;;16.60;62.80;;;;;;5031504;28;20098;-50
2022/11/03 10:10:24;;;;;;;4.50;1.52;;;16.60;62.60;;;;;;5040106;28;20480;-48
2022/11/03 10:12:52;;;;;;;3.08;1.30;;;16.60;62.50;;;;;;5038920;28;20033;-48
2022/11/03 10:15:21;;;;;;;3.17;1.50;;;16.70;62.40;;;;;;5029767;28;20034;-50
2022/11/03 10:17:49;;;;;;;5.40;1.98;;;16.70;62.40;;;;;;5038999;28;20123;-50
2022/11/03 10:20:19;;;;;;;3.33;1.63;;;16.70;62.40;;;;;;5038745;28;20100;-49
2022/11/03 10:22:50;;;;;;;3.60;1.88;;;16.70;62.10;;;;;;5031304;28;20088;-48
2022/11/03 10:25:38;;;;;;;6.07;2.20;;;16.70;62.00;;;;;;5037013;28;20037;-51
2022/11/03 10:28:16;;;;;;;8.68;3.05;;;16.70;61.70;;;;;;5042227;28;20053;-49
2022/11/03 10:30:57;;;;;;;4.22;2.38;;;16.80;61.80;;;;;;5049537;28;20091;-50
2022/11/03 10:33:53;;;;;;;6.63;2.30;;;16.80;61.90;;;;;;5033277;28;20679;-52
2022/11/03 10:36:28;;;;;;;6.65;2.47;;;16.80;61.90;;;;;;5040813;28;20584;-50
2022/11/03 10:38:56;;;;;;;4.97;1.73;;;16.80;62.00;;;;;;5028258;28;20091;-51
2022/11/03 10:41:22;;;;;;;5.60;2.03;;;16.80;62.10;;;;;;5028704;28;20622;-49
2022/11/03 10:44:18;;;;;;;5.88;2.08;;;16.80;62.00;;;;;;5036107;28;20106;-52
2022/11/03 10:47:00;;;;;;;9.48;2.63;;;16.90;61.80;;;;;;5030745;28;20065;-48
2022/11/03 10:49:32;;;;;;;6.45;2.10;;;16.90;61.70;;;;;;5031567;28;20041;-48
2022/11/03 10:52:24;;;;;;;3.95;1.70;;;16.90;61.90;;;;;;5032692;28;20041;-48
2022/11/03 10:54:54;;;;;;;3.75;1.83;;;17.00;61.80;;;;;;5037812;28;20044;-48
2022/11/03 10:57:22;;;;;;;5.40;2.67;;;17.00;61.80;;;;;;5028597;28;20057;-48
2022/11/03 10:59:50;;;;;;;7.63;1.63;;;16.90;61.60;;;;;;5031429;28;20120;-51
2022/11/03 11:02:20;;;;;;;5.25;1.55;;;17.00;61.40;;;;;;5028423;28;20512;-48
2022/11/03 11:04:58;;;;;;;4.45;1.60;;;17.00;61.50;;;;;;5041551;28;20526;-49
2022/11/03 11:07:38;;;;;;;6.70;3.35;;;17.00;61.40;;;;;;5031030;28;20049;-50
2022/11/03 11:10:19;;;;;;;3.97;2.28;;;17.00;61.40;;;;;;5026226;28;20076;-49
2022/11/03 11:13:13;;;;;;;6.43;1.77;;;17.10;61.40;;;;;;5031893;28;20063;-48
2022/11/03 11:15:52;;;;;;;2.97;1.20;;;17.10;61.30;;;;;;5013824;28;20131;-48
2022/11/03 11:18:28;;;;;;;4.22;1.60;;;17.10;61.10;;;;;;5028200;28;20560;-50
2022/11/03 11:20:56;;;;;;;5.63;1.83;;;17.10;61.50;;;;;;5027832;28;20053;-50
2022/11/03 11:23:26;;;;;;;5.30;1.40;;;17.20;61.30;;;;;;5036858;28;20056;-49
2022/11/03 11:26:08;;;;;;;2.67;1.55;;;17.30;61.10;;;;;;5043437;28;20048;-48
2022/11/03 11:28:40;;;;;;;5.67;1.87;;;17.30;60.90;;;;;;5028814;28;20693;-48
2022/11/03 11:31:28;;;;;;;7.68;2.67;;;17.30;60.80;;;;;;5040122;28;20070;-49
2022/11/03 11:34:20;;;;;;;4.43;1.42;;;17.30;60.40;;;;;;5039501;28;20106;-48
2022/11/03 11:37:09;;;;;;;4.07;1.73;;;17.30;60.50;;;;;;5045788;28;20037;-50
2022/11/03 11:39:42;;;;;;;5.43;1.40;;;17.30;60.30;;;;;;5030486;28;20037;-51
2022/11/03 11:42:15;;;;;;;2.53;1.60;;;17.30;60.40;;;;;;5039096;28;20034;-48
2022/11/03 11:44:42;;;;;;;4.13;1.60;;;17.30;60.40;;;;;;5027580;28;20057;-49
2022/11/03 11:47:45;;;;;;;4.65;1.40;;;17.30;60.60;;;;;;5029173;28;20041;-49
2022/11/03 11:50:26;;;;;;;2.75;1.33;;;17.30;60.50;;;;;;5031804;28;20045;-52
2022/11/03 11:52:58;;;;;;;4.00;1.83;;;17.40;60.70;;;;;;5029038;28;20042;-50
2022/11/03 11:55:37;;;;;;;3.75;1.70;;;17.40;60.70;;;;;;5028719;28;20867;-48
2022/11/03 11:58:12;;;;;;;5.45;2.00;;;17.40;60.50;;;;;;5030607;28;20042;-48
2022/11/03 12:00:50;;;;;;;6.18;1.25;;;17.50;60.80;;;;;;5032711;28;20056;-52
2022/11/03 12:03:22;;;;;;;4.90;1.45;;;17.60;60.40;;;;;;5047925;28;20045;-51
2022/11/03 12:05:49;;;;;;;2.17;1.35;;;17.60;60.60;;;;;;5039967;28;20156;-49
2022/11/03 12:08:17;;;;;;;3.45;1.20;;;17.60;60.50;;;;;;5043534;28;20032;-50
2022/11/03 12:10:56;;;;;;;4.55;1.52;;;17.70;60.50;;;;;;5037869;28;20133;-52
2022/11/03 12:13:42;;;;;;;4.07;1.40;;;17.80;60.30;;;;;;5031885;28;20041;-49
2022/11/03 12:16:26;;;;;;;7.32;1.55;;;17.80;60.10;;;;;;5027752;28;20738;-49
2022/11/03 12:18:53;;;;;;;12.75;2.72;;;17.90;60.20;;;;;;5035796;28;20044;-50
2022/11/03 12:21:48;;;;;;;3.15;1.38;;;17.90;59.90;;;;;;5040952;28;20030;-51
2022/11/03 12:24:25;;;;;;;1.77;1.08;;;18.00;59.50;;;;;;5016089;28;20050;-50
2022/11/03 12:26:52;;;;;;;3.63;1.50;;;18.00;59.30;;;;;;5041844;28;20041;-49
2022/11/03 12:29:21;;;;;;;2.55;1.52;;;18.00;59.40;;;;;;5042417;28;20041;-49
2022/11/03 12:31:48;;;;;;;3.15;1.85;;;18.00;59.30;;;;;;5031821;28;20051;-52
2022/11/03 12:34:17;;;;;;;3.85;1.23;;;18.00;59.20;;;;;;5033472;28;20045;-52
2022/11/03 12:36:45;;;;;;;4.03;1.13;;;18.00;59.10;;;;;;5040969;28;20042;-48
2022/11/03 12:39:15;;;;;;;4.78;1.60;;;18.00;58.90;;;;;;5044753;28;20128;-52
2022/11/03 12:41:41;;;;;;;2.63;1.52;;;18.00;58.90;;;;;;5036374;28;20041;-49
2022/11/03 12:44:11;;;;;;;3.85;1.13;;;18.00;58.80;;;;;;5033366;28;20038;-50
2022/11/03 12:46:37;;;;;;;2.15;1.15;;;18.00;58.90;;;;;;5033778;28;20069;-52
2022/11/03 12:49:04;;;;;;;2.67;1.23;;;18.00;59.10;;;;;;5032112;28;20048;-51
2022/11/03 12:51:31;;;;;;;3.20;1.23;;;18.00;58.90;;;;;;5033533;28;20068;-48
2022/11/03 12:53:59;;;;;;;4.10;1.38;;;18.00;58.90;;;;;;5036708;28;20053;-48
2022/11/03 12:56:26;;;;;;;4.07;1.60;;;18.00;58.80;;;;;;5035948;28;20041;-50
2022/11/03 12:58:55;;;;;;;2.78;1.40;;;18.00;58.80;;;;;;5032526;28;20037;-50
2022/11/03 13:01:22;;;;;;;3.28;1.13;;;18.00;58.90;;;;;;5031857;28;20095;-47
2022/11/03 13:03:49;;;;;;;2.22;1.20;;;18.10;59.10;;;;;;5034885;28;20421;-51
2022/11/03 13:06:16;;;;;;;4.95;1.48;;;18.10;59.10;;;;;;5034259;28;20060;-49
2022/11/03 13:08:43;;;;;;;2.78;1.80;;;18.20;59.00;;;;;;5033711;28;20037;-52
2022/11/03 13:12:30;;;;;;;3.83;1.83;;;18.20;58.70;;;;;;5029343;28;20041;-50
2022/11/03 13:14:00;;;;;;;4.28;1.20;;;18.20;58.60;;;;;;5037671;28;20040;-53
2022/11/03 13:16:26;;;;;;;2.72;0.98;;;18.30;58.40;;;;;;5042271;28;20042;-47
2022/11/03 13:18:53;;;;;;;2.47;1.20;;;18.30;58.20;;;;;;5038651;28;20047;-48
2022/11/03 13:21:20;;;;;;;3.05;1.00;;;18.40;58.20;;;;;;5031118;28;20128;-48
2022/11/03 13:23:46;;;;;;;3.85;1.17;;;18.40;57.90;;;;;;5031542;28;20115;-47
2022/11/03 13:26:13;;;;;;;2.85;1.30;;;18.40;57.60;;;;;;5032285;28;20049;-50
2022/11/03 13:28:40;;;;;;;3.25;0.88;;;18.40;57.60;;;;;;5032643;28;20037;-50
2022/11/03 13:31:06;;;;;;;2.75;1.20;;;18.50;57.70;;;;;;5023868;28;20037;-49
2022/11/03 13:33:33;;;;;;;3.85;1.10;;;18.50;57.70;;;;;;5037825;28;20037;-50
2022/11/03 13:35:59;;;;;;;6.57;1.40;;;18.40;57.80;;;;;;5043228;28;20489;-48